sensor_id;sensor_type;location;lat;lon;timestamp;P1;durP1;ratioP1;P2;durP2;ratioP2
25922;SDS011;13725;51.170;4.442;2022-10-18T00:01:06;26.50;;;12.45;;
25922;SDS011;13725;51.170;4.442;2022-10-18T00:03:32;28.17;;;11.93;;
25922;SDS011;13725;51.170;4.442;2022-10-18T00:05:59;24.33;;;11.93;;
25922;SDS011;13725;51.170;4.442;2022-10-18T00:08:26;22.08;;;11.88;;
25922;SDS011;13725;51.170;4.442;2022-10-18T00:10:52;22.75;;;11.30;;
25922;SDS011;13725;51.170;4.442;2022-10-18T00:13:18;21.45;;;12.63;;
25922;SDS011;13725;51.170;4.442;2022-10-18T00:15:49;23.42;;;13.07;;
25922;SDS011;13725;51.170;4.442;2022-10-18T00:18:16;25.70;;;12.65;;
25922;SDS011;13725;51.170;4.442;2022-10-18T00:20:42;20.48;;;12.98;;
25922;SDS011;13725;51.170;4.442;2022-10-18T00:23:08;28.92;;;13.57;;
25922;SDS011;13725;51.170;4.442;2022-10-18T00:25:33;22.92;;;13.52;;
25922;SDS011;13725;51.170;4.442;2022-10-18T00:27:59;27.10;;;12.50;;
25922;SDS011;13725;51.170;4.442;2022-10-18T00:30:25;25.55;;;13.38;;
25922;SDS011;13725;51.170;4.442;2022-10-18T00:32:50;23.08;;;13.18;;
25922;SDS011;13725;51.170;4.442;2022-10-18T00:35:16;24.85;;;12.38;;
25922;SDS011;13725;51.170;4.442;2022-10-18T00:37:42;23.13;;;12.02;;
25922;SDS011;13725;51.170;4.442;2022-10-18T00:40:08;24.73;;;13.40;;
25922;SDS011;13725;51.170;4.442;2022-10-18T00:42:35;19.75;;;11.95;;
25922;SDS011;13725;51.170;4.442;2022-10-18T00:47:57;21.80;;;12.70;;
25922;SDS011;13725;51.170;4.442;2022-10-18T00:50:26;24.50;;;12.45;;
25922;SDS011;13725;51.170;4.442;2022-10-18T00:52:56;20.33;;;12.25;;
25922;SDS011;13725;51.170;4.442;2022-10-18T00:55:25;22.92;;;12.63;;
25922;SDS011;13725;51.170;4.442;2022-10-18T00:57:52;24.67;;;13.48;;
25922;SDS011;13725;51.170;4.442;2022-10-18T01:00:18;17.33;;;12.27;;
25922;SDS011;13725;51.170;4.442;2022-10-18T01:02:44;22.13;;;13.68;;
25922;SDS011;13725;51.170;4.442;2022-10-18T01:05:12;26.58;;;12.68;;
25922;SDS011;13725;51.170;4.442;2022-10-18T01:16:19;23.90;;;12.63;;
25922;SDS011;13725;51.170;4.442;2022-10-18T01:18:56;26.80;;;13.13;;
25922;SDS011;13725;51.170;4.442;2022-10-18T01:33:11;21.60;;;12.55;;
25922;SDS011;13725;51.170;4.442;2022-10-18T01:35:39;26.40;;;13.68;;
25922;SDS011;13725;51.170;4.442;2022-10-18T01:38:12;20.45;;;12.98;;
25922;SDS011;13725;51.170;4.442;2022-10-18T01:40:42;23.45;;;12.43;;
25922;SDS011;13725;51.170;4.442;2022-10-18T01:43:11;23.10;;;12.25;;
25922;SDS011;13725;51.170;4.442;2022-10-18T01:45:39;24.65;;;13.45;;
25922;SDS011;13725;51.170;4.442;2022-10-18T01:48:06;22.67;;;13.40;;
25922;SDS011;13725;51.170;4.442;2022-10-18T01:50:33;22.20;;;12.73;;
25922;SDS011;13725;51.170;4.442;2022-10-18T01:52:59;20.77;;;12.25;;
25922;SDS011;13725;51.170;4.442;2022-10-18T01:55:50;18.35;;;11.88;;
25922;SDS011;13725;51.170;4.442;2022-10-18T01:58:19;27.77;;;12.57;;
25922;SDS011;13725;51.170;4.442;2022-10-18T02:01:17;25.38;;;12.80;;
25922;SDS011;13725;51.170;4.442;2022-10-18T02:03:55;19.67;;;12.70;;
25922;SDS011;13725;51.170;4.442;2022-10-18T02:06:28;20.00;;;11.57;;
25922;SDS011;13725;51.170;4.442;2022-10-18T02:11:38;23.45;;;11.98;;
25922;SDS011;13725;51.170;4.442;2022-10-18T02:14:07;24.83;;;12.43;;
25922;SDS011;13725;51.170;4.442;2022-10-18T02:16:47;20.88;;;12.05;;
25922;SDS011;13725;51.170;4.442;2022-10-18T02:19:18;20.77;;;11.80;;
25922;SDS011;13725;51.170;4.442;2022-10-18T02:21:50;20.25;;;12.30;;
25922;SDS011;13725;51.170;4.442;2022-10-18T02:24:18;20.80;;;12.93;;
25922;SDS011;13725;51.170;4.442;2022-10-18T02:26:47;19.30;;;12.65;;
25922;SDS011;13725;51.170;4.442;2022-10-18T02:29:13;21.70;;;12.43;;
25922;SDS011;13725;51.170;4.442;2022-10-18T02:31:44;25.17;;;11.55;;
25922;SDS011;13725;51.170;4.442;2022-10-18T02:34:18;22.42;;;13.48;;
25922;SDS011;13725;51.170;4.442;2022-10-18T02:39:30;26.98;;;12.45;;
25922;SDS011;13725;51.170;4.442;2022-10-18T02:41:59;25.13;;;13.18;;
25922;SDS011;13725;51.170;4.442;2022-10-18T02:44:25;26.48;;;12.57;;
25922;SDS011;13725;51.170;4.442;2022-10-18T02:46:51;25.33;;;13.93;;
25922;SDS011;13725;51.170;4.442;2022-10-18T02:49:17;21.83;;;13.38;;
25922;SDS011;13725;51.170;4.442;2022-10-18T02:51:43;24.13;;;13.75;;
25922;SDS011;13725;51.170;4.442;2022-10-18T02:54:09;24.17;;;13.43;;
25922;SDS011;13725;51.170;4.442;2022-10-18T02:56:34;22.83;;;13.52;;
25922;SDS011;13725;51.170;4.442;2022-10-18T02:59:00;33.70;;;14.48;;
25922;SDS011;13725;51.170;4.442;2022-10-18T03:01:27;25.30;;;14.18;;
25922;SDS011;13725;51.170;4.442;2022-10-18T03:03:53;30.33;;;14.80;;
25922;SDS011;13725;51.170;4.442;2022-10-18T03:06:19;29.63;;;15.15;;
25922;SDS011;13725;51.170;4.442;2022-10-18T03:08:44;30.85;;;15.65;;
25922;SDS011;13725;51.170;4.442;2022-10-18T03:11:10;29.40;;;15.80;;
25922;SDS011;13725;51.170;4.442;2022-10-18T03:13:36;27.50;;;15.45;;
25922;SDS011;13725;51.170;4.442;2022-10-18T03:16:02;29.25;;;15.50;;
25922;SDS011;13725;51.170;4.442;2022-10-18T03:18:27;33.55;;;15.10;;
25922;SDS011;13725;51.170;4.442;2022-10-18T03:20:54;26.35;;;14.77;;
25922;SDS011;13725;51.170;4.442;2022-10-18T03:23:20;29.42;;;15.40;;
25922;SDS011;13725;51.170;4.442;2022-10-18T03:25:46;29.27;;;15.02;;
25922;SDS011;13725;51.170;4.442;2022-10-18T03:28:11;29.38;;;14.27;;
25922;SDS011;13725;51.170;4.442;2022-10-18T03:30:37;28.70;;;14.68;;
25922;SDS011;13725;51.170;4.442;2022-10-18T03:33:06;26.95;;;14.02;;
25922;SDS011;13725;51.170;4.442;2022-10-18T03:35:31;29.25;;;13.95;;
25922;SDS011;13725;51.170;4.442;2022-10-18T03:37:57;23.05;;;12.65;;
25922;SDS011;13725;51.170;4.442;2022-10-18T03:40:23;26.33;;;12.57;;
25922;SDS011;13725;51.170;4.442;2022-10-18T03:42:49;24.00;;;11.75;;
25922;SDS011;13725;51.170;4.442;2022-10-18T03:45:14;20.90;;;10.50;;
25922;SDS011;13725;51.170;4.442;2022-10-18T03:47:40;23.27;;;9.73;;
25922;SDS011;13725;51.170;4.442;2022-10-18T03:50:06;22.58;;;9.20;;
25922;SDS011;13725;51.170;4.442;2022-10-18T03:52:32;15.65;;;8.77;;
25922;SDS011;13725;51.170;4.442;2022-10-18T03:54:58;23.30;;;8.40;;
25922;SDS011;13725;51.170;4.442;2022-10-18T03:57:23;26.42;;;7.53;;
25922;SDS011;13725;51.170;4.442;2022-10-18T03:59:49;26.00;;;7.43;;
25922;SDS011;13725;51.170;4.442;2022-10-18T04:02:15;26.52;;;6.95;;
25922;SDS011;13725;51.170;4.442;2022-10-18T04:04:40;17.90;;;6.03;;
25922;SDS011;13725;51.170;4.442;2022-10-18T04:07:06;16.27;;;6.53;;
25922;SDS011;13725;51.170;4.442;2022-10-18T04:09:32;19.17;;;6.63;;
25922;SDS011;13725;51.170;4.442;2022-10-18T04:11:58;18.95;;;6.55;;
25922;SDS011;13725;51.170;4.442;2022-10-18T04:14:24;18.48;;;5.75;;
25922;SDS011;13725;51.170;4.442;2022-10-18T04:16:50;27.83;;;5.75;;
25922;SDS011;13725;51.170;4.442;2022-10-18T04:19:16;24.67;;;5.60;;
25922;SDS011;13725;51.170;4.442;2022-10-18T04:21:41;17.00;;;5.47;;
25922;SDS011;13725;51.170;4.442;2022-10-18T04:24:07;18.13;;;4.90;;
25922;SDS011;13725;51.170;4.442;2022-10-18T04:26:33;29.98;;;5.95;;
25922;SDS011;13725;51.170;4.442;2022-10-18T04:28:58;22.35;;;5.45;;
25922;SDS011;13725;51.170;4.442;2022-10-18T04:31:24;20.90;;;6.50;;
25922;SDS011;13725;51.170;4.442;2022-10-18T04:33:50;12.27;;;4.97;;
25922;SDS011;13725;51.170;4.442;2022-10-18T04:36:15;12.77;;;4.35;;
25922;SDS011;13725;51.170;4.442;2022-10-18T04:38:41;50.92;;;6.18;;
25922;SDS011;13725;51.170;4.442;2022-10-18T04:41:07;16.20;;;4.57;;
25922;SDS011;13725;51.170;4.442;2022-10-18T04:43:33;18.52;;;4.70;;
25922;SDS011;13725;51.170;4.442;2022-10-18T04:45:58;14.93;;;4.60;;
25922;SDS011;13725;51.170;4.442;2022-10-18T04:48:24;27.25;;;5.45;;
25922;SDS011;13725;51.170;4.442;2022-10-18T04:50:50;22.30;;;5.60;;
25922;SDS011;13725;51.170;4.442;2022-10-18T04:53:16;18.27;;;5.07;;
25922;SDS011;13725;51.170;4.442;2022-10-18T04:55:43;20.13;;;5.07;;
25922;SDS011;13725;51.170;4.442;2022-10-18T04:58:10;19.75;;;5.40;;
25922;SDS011;13725;51.170;4.442;2022-10-18T05:00:36;22.05;;;4.97;;
25922;SDS011;13725;51.170;4.442;2022-10-18T05:03:02;22.33;;;5.93;;
25922;SDS011;13725;51.170;4.442;2022-10-18T05:05:28;14.35;;;4.28;;
25922;SDS011;13725;51.170;4.442;2022-10-18T05:07:54;17.20;;;4.85;;
25922;SDS011;13725;51.170;4.442;2022-10-18T05:10:20;19.20;;;5.60;;
25922;SDS011;13725;51.170;4.442;2022-10-18T05:12:45;23.73;;;5.35;;
25922;SDS011;13725;51.170;4.442;2022-10-18T05:15:11;10.65;;;4.53;;
25922;SDS011;13725;51.170;4.442;2022-10-18T05:17:37;12.77;;;4.88;;
25922;SDS011;13725;51.170;4.442;2022-10-18T05:20:03;18.30;;;5.15;;
25922;SDS011;13725;51.170;4.442;2022-10-18T05:22:29;19.35;;;5.32;;
25922;SDS011;13725;51.170;4.442;2022-10-18T05:24:54;10.43;;;4.93;;
25922;SDS011;13725;51.170;4.442;2022-10-18T05:27:20;18.85;;;6.97;;
25922;SDS011;13725;51.170;4.442;2022-10-18T05:29:46;24.63;;;6.05;;
25922;SDS011;13725;51.170;4.442;2022-10-18T05:32:11;16.52;;;5.97;;
25922;SDS011;13725;51.170;4.442;2022-10-18T05:34:38;18.35;;;5.80;;
25922;SDS011;13725;51.170;4.442;2022-10-18T05:37:04;18.55;;;5.47;;
25922;SDS011;13725;51.170;4.442;2022-10-18T05:39:31;21.02;;;5.88;;
25922;SDS011;13725;51.170;4.442;2022-10-18T05:41:56;15.98;;;5.65;;
25922;SDS011;13725;51.170;4.442;2022-10-18T05:44:22;18.75;;;5.57;;
25922;SDS011;13725;51.170;4.442;2022-10-18T05:46:48;16.48;;;4.55;;
25922;SDS011;13725;51.170;4.442;2022-10-18T05:49:14;20.92;;;5.70;;
25922;SDS011;13725;51.170;4.442;2022-10-18T05:51:40;18.77;;;5.25;;
25922;SDS011;13725;51.170;4.442;2022-10-18T05:54:05;17.38;;;5.53;;
25922;SDS011;13725;51.170;4.442;2022-10-18T05:56:31;16.40;;;4.97;;
25922;SDS011;13725;51.170;4.442;2022-10-18T05:58:57;14.07;;;5.43;;
25922;SDS011;13725;51.170;4.442;2022-10-18T06:01:22;22.38;;;6.28;;
25922;SDS011;13725;51.170;4.442;2022-10-18T06:03:49;16.85;;;5.88;;
25922;SDS011;13725;51.170;4.442;2022-10-18T06:06:15;12.10;;;5.55;;
25922;SDS011;13725;51.170;4.442;2022-10-18T06:08:41;23.02;;;5.63;;
25922;SDS011;13725;51.170;4.442;2022-10-18T06:11:10;20.60;;;5.88;;
25922;SDS011;13725;51.170;4.442;2022-10-18T06:13:44;18.55;;;5.82;;
25922;SDS011;13725;51.170;4.442;2022-10-18T06:16:11;17.70;;;6.03;;
25922;SDS011;13725;51.170;4.442;2022-10-18T06:18:38;14.77;;;5.75;;
25922;SDS011;13725;51.170;4.442;2022-10-18T06:21:04;20.55;;;6.95;;
25922;SDS011;13725;51.170;4.442;2022-10-18T06:23:30;14.20;;;6.43;;
25922;SDS011;13725;51.170;4.442;2022-10-18T06:26:04;12.18;;;6.18;;
25922;SDS011;13725;51.170;4.442;2022-10-18T06:28:32;24.80;;;7.00;;
25922;SDS011;13725;51.170;4.442;2022-10-18T06:30:59;19.33;;;6.65;;
25922;SDS011;13725;51.170;4.442;2022-10-18T06:33:25;16.67;;;7.05;;
25922;SDS011;13725;51.170;4.442;2022-10-18T06:36:00;17.17;;;6.10;;
25922;SDS011;13725;51.170;4.442;2022-10-18T06:38:29;20.80;;;6.63;;
25922;SDS011;13725;51.170;4.442;2022-10-18T06:40:55;19.45;;;7.05;;
25922;SDS011;13725;51.170;4.442;2022-10-18T06:43:22;15.65;;;6.78;;
25922;SDS011;13725;51.170;4.442;2022-10-18T06:45:49;20.83;;;7.30;;
25922;SDS011;13725;51.170;4.442;2022-10-18T06:48:15;22.83;;;7.15;;
25922;SDS011;13725;51.170;4.442;2022-10-18T06:50:42;23.90;;;6.93;;
25922;SDS011;13725;51.170;4.442;2022-10-18T06:53:22;25.75;;;7.57;;
25922;SDS011;13725;51.170;4.442;2022-10-18T06:55:49;151.00;;;17.65;;
25922;SDS011;13725;51.170;4.442;2022-10-18T06:58:15;142.75;;;20.48;;
25922;SDS011;13725;51.170;4.442;2022-10-18T07:00:40;109.25;;;16.90;;
25922;SDS011;13725;51.170;4.442;2022-10-18T07:03:06;60.20;;;13.32;;
25922;SDS011;13725;51.170;4.442;2022-10-18T07:05:32;68.90;;;13.85;;
25922;SDS011;13725;51.170;4.442;2022-10-18T07:07:58;68.22;;;16.05;;
25922;SDS011;13725;51.170;4.442;2022-10-18T07:10:24;42.58;;;11.43;;
25922;SDS011;13725;51.170;4.442;2022-10-18T07:12:50;29.65;;;10.75;;
25922;SDS011;13725;51.170;4.442;2022-10-18T07:15:16;29.25;;;9.63;;
25922;SDS011;13725;51.170;4.442;2022-10-18T07:17:42;46.45;;;12.43;;
25922;SDS011;13725;51.170;4.442;2022-10-18T07:20:13;41.92;;;11.07;;
25922;SDS011;13725;51.170;4.442;2022-10-18T07:22:38;32.20;;;9.98;;
25922;SDS011;13725;51.170;4.442;2022-10-18T07:25:05;26.10;;;9.77;;
25922;SDS011;13725;51.170;4.442;2022-10-18T07:27:34;35.85;;;11.18;;
25922;SDS011;13725;51.170;4.442;2022-10-18T07:30:05;30.70;;;10.38;;
25922;SDS011;13725;51.170;4.442;2022-10-18T07:32:31;36.47;;;9.73;;
25922;SDS011;13725;51.170;4.442;2022-10-18T07:34:57;22.35;;;8.93;;
25922;SDS011;13725;51.170;4.442;2022-10-18T07:37:23;22.17;;;8.73;;
25922;SDS011;13725;51.170;4.442;2022-10-18T07:39:49;22.88;;;8.85;;
25922;SDS011;13725;51.170;4.442;2022-10-18T07:42:14;22.13;;;8.50;;
25922;SDS011;13725;51.170;4.442;2022-10-18T07:44:40;35.00;;;10.13;;
25922;SDS011;13725;51.170;4.442;2022-10-18T07:47:06;31.25;;;12.23;;
25922;SDS011;13725;51.170;4.442;2022-10-18T07:49:31;37.25;;;11.60;;
25922;SDS011;13725;51.170;4.442;2022-10-18T07:51:57;29.40;;;8.43;;
25922;SDS011;13725;51.170;4.442;2022-10-18T07:54:23;29.30;;;8.20;;
25922;SDS011;13725;51.170;4.442;2022-10-18T07:56:48;29.83;;;7.40;;
25922;SDS011;13725;51.170;4.442;2022-10-18T07:59:14;21.08;;;6.90;;
25922;SDS011;13725;51.170;4.442;2022-10-18T08:01:40;23.08;;;5.85;;
25922;SDS011;13725;51.170;4.442;2022-10-18T08:04:06;18.40;;;6.68;;
25922;SDS011;13725;51.170;4.442;2022-10-18T08:06:31;16.40;;;4.20;;
25922;SDS011;13725;51.170;4.442;2022-10-18T08:08:58;27.05;;;4.78;;
25922;SDS011;13725;51.170;4.442;2022-10-18T08:11:24;22.27;;;5.40;;
25922;SDS011;13725;51.170;4.442;2022-10-18T08:13:50;14.90;;;3.42;;
25922;SDS011;13725;51.170;4.442;2022-10-18T08:16:18;19.90;;;3.90;;
25922;SDS011;13725;51.170;4.442;2022-10-18T08:18:46;12.90;;;3.47;;
25922;SDS011;13725;51.170;4.442;2022-10-18T08:21:13;15.18;;;3.90;;
25922;SDS011;13725;51.170;4.442;2022-10-18T08:23:39;16.02;;;3.90;;
25922;SDS011;13725;51.170;4.442;2022-10-18T08:26:06;14.90;;;3.90;;
25922;SDS011;13725;51.170;4.442;2022-10-18T08:28:36;15.73;;;4.03;;
25922;SDS011;13725;51.170;4.442;2022-10-18T08:31:06;14.63;;;4.93;;
25922;SDS011;13725;51.170;4.442;2022-10-18T08:33:34;13.90;;;4.28;;
25922;SDS011;13725;51.170;4.442;2022-10-18T08:36:01;15.90;;;4.30;;
25922;SDS011;13725;51.170;4.442;2022-10-18T08:38:32;13.27;;;3.63;;
25922;SDS011;13725;51.170;4.442;2022-10-18T08:41:23;17.35;;;4.53;;
25922;SDS011;13725;51.170;4.442;2022-10-18T08:44:23;14.27;;;4.22;;
25922;SDS011;13725;51.170;4.442;2022-10-18T08:46:52;13.30;;;4.22;;
25922;SDS011;13725;51.170;4.442;2022-10-18T08:49:27;14.23;;;4.38;;
25922;SDS011;13725;51.170;4.442;2022-10-18T08:52:00;11.85;;;3.60;;
25922;SDS011;13725;51.170;4.442;2022-10-18T08:54:37;13.43;;;4.15;;
25922;SDS011;13725;51.170;4.442;2022-10-18T08:57:13;13.90;;;4.43;;
25922;SDS011;13725;51.170;4.442;2022-10-18T08:59:42;15.05;;;4.40;;
25922;SDS011;13725;51.170;4.442;2022-10-18T09:07:41;11.40;;;3.40;;
25922;SDS011;13725;51.170;4.442;2022-10-18T09:16:05;8.30;;;2.20;;
25922;SDS011;13725;51.170;4.442;2022-10-18T09:21:28;13.23;;;3.00;;
25922;SDS011;13725;51.170;4.442;2022-10-18T09:26:45;10.68;;;2.45;;
25922;SDS011;13725;51.170;4.442;2022-10-18T09:37:35;10.98;;;2.90;;
25922;SDS011;13725;51.170;4.442;2022-10-18T09:40:11;11.02;;;2.10;;
25922;SDS011;13725;51.170;4.442;2022-10-18T09:45:35;10.48;;;2.67;;
25922;SDS011;13725;51.170;4.442;2022-10-18T09:48:12;11.00;;;2.55;;
25922;SDS011;13725;51.170;4.442;2022-10-18T09:53:24;8.10;;;2.80;;
25922;SDS011;13725;51.170;4.442;2022-10-18T09:58:50;10.95;;;2.50;;
25922;SDS011;13725;51.170;4.442;2022-10-18T10:01:34;12.57;;;3.30;;
25922;SDS011;13725;51.170;4.442;2022-10-18T10:04:00;12.18;;;2.75;;
25922;SDS011;13725;51.170;4.442;2022-10-18T10:06:27;9.73;;;2.78;;
25922;SDS011;13725;51.170;4.442;2022-10-18T10:08:57;10.48;;;2.72;;
25922;SDS011;13725;51.170;4.442;2022-10-18T10:11:37;13.70;;;2.92;;
25922;SDS011;13725;51.170;4.442;2022-10-18T10:14:16;13.95;;;3.00;;
25922;SDS011;13725;51.170;4.442;2022-10-18T10:16:51;10.82;;;2.67;;
25922;SDS011;13725;51.170;4.442;2022-10-18T10:19:33;11.50;;;2.80;;
25922;SDS011;13725;51.170;4.442;2022-10-18T10:22:09;9.18;;;3.35;;
25922;SDS011;13725;51.170;4.442;2022-10-18T10:24:46;12.90;;;2.80;;
25922;SDS011;13725;51.170;4.442;2022-10-18T10:27:16;6.97;;;2.85;;
25922;SDS011;13725;51.170;4.442;2022-10-18T10:29:54;9.82;;;2.60;;
25922;SDS011;13725;51.170;4.442;2022-10-18T10:32:23;11.05;;;3.03;;
25922;SDS011;13725;51.170;4.442;2022-10-18T10:37:56;10.40;;;2.55;;
25922;SDS011;13725;51.170;4.442;2022-10-18T10:40:23;10.15;;;2.72;;
25922;SDS011;13725;51.170;4.442;2022-10-18T10:43:02;10.10;;;2.17;;
25922;SDS011;13725;51.170;4.442;2022-10-18T10:45:54;12.75;;;3.22;;
25922;SDS011;13725;51.170;4.442;2022-10-18T10:48:22;13.85;;;3.38;;
25922;SDS011;13725;51.170;4.442;2022-10-18T10:53:24;10.20;;;2.90;;
25922;SDS011;13725;51.170;4.442;2022-10-18T10:55:56;7.57;;;2.22;;
25922;SDS011;13725;51.170;4.442;2022-10-18T10:58:23;6.20;;;2.25;;
25922;SDS011;13725;51.170;4.442;2022-10-18T11:00:53;11.63;;;2.78;;
25922;SDS011;13725;51.170;4.442;2022-10-18T11:03:20;11.57;;;2.30;;
25922;SDS011;13725;51.170;4.442;2022-10-18T11:05:48;10.68;;;2.40;;
25922;SDS011;13725;51.170;4.442;2022-10-18T11:08:25;7.30;;;2.38;;
25922;SDS011;13725;51.170;4.442;2022-10-18T11:13:48;9.57;;;1.90;;
25922;SDS011;13725;51.170;4.442;2022-10-18T11:16:28;7.93;;;1.97;;
25922;SDS011;13725;51.170;4.442;2022-10-18T11:18:58;7.40;;;2.28;;
25922;SDS011;13725;51.170;4.442;2022-10-18T11:21:33;9.80;;;2.30;;
25922;SDS011;13725;51.170;4.442;2022-10-18T11:24:00;12.30;;;2.20;;
25922;SDS011;13725;51.170;4.442;2022-10-18T11:32:09;9.30;;;1.85;;
25922;SDS011;13725;51.170;4.442;2022-10-18T11:37:26;11.13;;;2.05;;
25922;SDS011;13725;51.170;4.442;2022-10-18T11:51:00;14.13;;;2.55;;
25922;SDS011;13725;51.170;4.442;2022-10-18T11:54:08;8.77;;;1.90;;
25922;SDS011;13725;51.170;4.442;2022-10-18T11:56:58;13.18;;;2.47;;
25922;SDS011;13725;51.170;4.442;2022-10-18T12:05:37;10.88;;;2.10;;
25922;SDS011;13725;51.170;4.442;2022-10-18T12:08:06;10.43;;;2.28;;
25922;SDS011;13725;51.170;4.442;2022-10-18T12:10:35;7.60;;;1.90;;
25922;SDS011;13725;51.170;4.442;2022-10-18T12:13:05;8.63;;;2.15;;
25922;SDS011;13725;51.170;4.442;2022-10-18T12:15:38;9.70;;;2.05;;
25922;SDS011;13725;51.170;4.442;2022-10-18T12:18:15;10.70;;;2.22;;
25922;SDS011;13725;51.170;4.442;2022-10-18T12:20:46;10.43;;;2.00;;
25922;SDS011;13725;51.170;4.442;2022-10-18T12:23:16;8.50;;;2.20;;
25922;SDS011;13725;51.170;4.442;2022-10-18T12:25:52;11.40;;;2.88;;
25922;SDS011;13725;51.170;4.442;2022-10-18T12:28:37;10.60;;;2.42;;
25922;SDS011;13725;51.170;4.442;2022-10-18T12:33:38;11.82;;;2.45;;
25922;SDS011;13725;51.170;4.442;2022-10-18T12:38:49;11.60;;;2.40;;
25922;SDS011;13725;51.170;4.442;2022-10-18T12:41:21;11.45;;;2.70;;
25922;SDS011;13725;51.170;4.442;2022-10-18T12:43:55;11.85;;;2.65;;
25922;SDS011;13725;51.170;4.442;2022-10-18T12:49:21;7.93;;;1.73;;
25922;SDS011;13725;51.170;4.442;2022-10-18T12:52:18;9.85;;;2.00;;
25922;SDS011;13725;51.170;4.442;2022-10-18T12:58:03;9.07;;;2.20;;
25922;SDS011;13725;51.170;4.442;2022-10-18T13:16:55;9.80;;;2.05;;
25922;SDS011;13725;51.170;4.442;2022-10-18T13:22:09;15.75;;;2.30;;
25922;SDS011;13725;51.170;4.442;2022-10-18T13:38:30;12.25;;;2.22;;
25922;SDS011;13725;51.170;4.442;2022-10-18T13:41:12;10.98;;;2.45;;
25922;SDS011;13725;51.170;4.442;2022-10-18T13:46:23;11.65;;;2.00;;
25922;SDS011;13725;51.170;4.442;2022-10-18T13:52:06;10.57;;;1.98;;
25922;SDS011;13725;51.170;4.442;2022-10-18T14:00:34;10.80;;;1.60;;
25922;SDS011;13725;51.170;4.442;2022-10-18T14:11:21;12.48;;;1.80;;
25922;SDS011;13725;51.170;4.442;2022-10-18T14:13:58;12.63;;;2.15;;
25922;SDS011;13725;51.170;4.442;2022-10-18T14:16:49;11.18;;;2.40;;
25922;SDS011;13725;51.170;4.442;2022-10-18T14:25:01;10.93;;;2.50;;
25922;SDS011;13725;51.170;4.442;2022-10-18T14:27:28;14.70;;;2.30;;
25922;SDS011;13725;51.170;4.442;2022-10-18T14:30:14;9.57;;;1.80;;
25922;SDS011;13725;51.170;4.442;2022-10-18T14:32:45;9.90;;;1.90;;
25922;SDS011;13725;51.170;4.442;2022-10-18T14:35:20;18.05;;;3.00;;
25922;SDS011;13725;51.170;4.442;2022-10-18T14:37:49;9.02;;;1.70;;
25922;SDS011;13725;51.170;4.442;2022-10-18T14:40:27;7.57;;;1.73;;
25922;SDS011;13725;51.170;4.442;2022-10-18T14:43:03;8.35;;;1.63;;
25922;SDS011;13725;51.170;4.442;2022-10-18T14:45:40;9.30;;;2.33;;
25922;SDS011;13725;51.170;4.442;2022-10-18T14:48:14;6.70;;;1.20;;
25922;SDS011;13725;51.170;4.442;2022-10-18T14:50:46;6.88;;;1.50;;
25922;SDS011;13725;51.170;4.442;2022-10-18T14:53:23;12.27;;;2.03;;
25922;SDS011;13725;51.170;4.442;2022-10-18T14:55:55;8.23;;;1.60;;
25922;SDS011;13725;51.170;4.442;2022-10-18T14:58:28;10.65;;;1.52;;
25922;SDS011;13725;51.170;4.442;2022-10-18T15:00:54;7.35;;;1.52;;
25922;SDS011;13725;51.170;4.442;2022-10-18T15:03:21;9.43;;;1.73;;
25922;SDS011;13725;51.170;4.442;2022-10-18T15:05:55;7.13;;;1.40;;
25922;SDS011;13725;51.170;4.442;2022-10-18T15:08:24;6.50;;;1.67;;
25922;SDS011;13725;51.170;4.442;2022-10-18T15:10:54;11.57;;;1.60;;
25922;SDS011;13725;51.170;4.442;2022-10-18T15:13:21;6.65;;;1.75;;
25922;SDS011;13725;51.170;4.442;2022-10-18T15:15:49;7.85;;;1.50;;
25922;SDS011;13725;51.170;4.442;2022-10-18T15:18:19;11.30;;;1.88;;
25922;SDS011;13725;51.170;4.442;2022-10-18T15:21:05;10.90;;;1.83;;
25922;SDS011;13725;51.170;4.442;2022-10-18T15:23:32;10.35;;;2.47;;
25922;SDS011;13725;51.170;4.442;2022-10-18T15:26:01;12.32;;;1.58;;
25922;SDS011;13725;51.170;4.442;2022-10-18T15:28:35;12.35;;;2.00;;
25922;SDS011;13725;51.170;4.442;2022-10-18T15:31:04;11.65;;;2.78;;
25922;SDS011;13725;51.170;4.442;2022-10-18T15:33:31;9.27;;;1.85;;
25922;SDS011;13725;51.170;4.442;2022-10-18T15:36:11;7.50;;;1.90;;
25922;SDS011;13725;51.170;4.442;2022-10-18T15:39:04;8.25;;;1.70;;
25922;SDS011;13725;51.170;4.442;2022-10-18T15:44:05;12.25;;;2.20;;
25922;SDS011;13725;51.170;4.442;2022-10-18T15:46:45;8.75;;;1.83;;
25922;SDS011;13725;51.170;4.442;2022-10-18T15:54:56;12.98;;;2.65;;
25922;SDS011;13725;51.170;4.442;2022-10-18T15:57:23;7.90;;;2.05;;
25922;SDS011;13725;51.170;4.442;2022-10-18T15:59:53;13.55;;;2.40;;
25922;SDS011;13725;51.170;4.442;2022-10-18T16:02:22;11.25;;;2.58;;
25922;SDS011;13725;51.170;4.442;2022-10-18T16:04:49;10.82;;;2.10;;
25922;SDS011;13725;51.170;4.442;2022-10-18T16:07:15;7.38;;;2.10;;
25922;SDS011;13725;51.170;4.442;2022-10-18T16:09:40;9.98;;;2.35;;
25922;SDS011;13725;51.170;4.442;2022-10-18T16:12:07;11.00;;;3.22;;
25922;SDS011;13725;51.170;4.442;2022-10-18T16:14:33;12.18;;;2.20;;
25922;SDS011;13725;51.170;4.442;2022-10-18T16:17:01;11.20;;;1.70;;
25922;SDS011;13725;51.170;4.442;2022-10-18T16:19:29;10.60;;;2.03;;
25922;SDS011;13725;51.170;4.442;2022-10-18T16:21:56;8.55;;;2.55;;
25922;SDS011;13725;51.170;4.442;2022-10-18T16:24:22;5.78;;;1.73;;
25922;SDS011;13725;51.170;4.442;2022-10-18T16:26:48;7.55;;;1.92;;
25922;SDS011;13725;51.170;4.442;2022-10-18T16:29:14;12.73;;;2.35;;
25922;SDS011;13725;51.170;4.442;2022-10-18T16:31:46;7.82;;;2.00;;
25922;SDS011;13725;51.170;4.442;2022-10-18T16:34:12;8.48;;;1.90;;
25922;SDS011;13725;51.170;4.442;2022-10-18T16:36:39;7.22;;;1.70;;
25922;SDS011;13725;51.170;4.442;2022-10-18T16:39:06;7.25;;;2.20;;
25922;SDS011;13725;51.170;4.442;2022-10-18T16:41:39;15.52;;;2.40;;
25922;SDS011;13725;51.170;4.442;2022-10-18T16:44:05;11.93;;;2.03;;
25922;SDS011;13725;51.170;4.442;2022-10-18T16:46:31;12.18;;;2.42;;
25922;SDS011;13725;51.170;4.442;2022-10-18T16:48:58;12.82;;;3.00;;
25922;SDS011;13725;51.170;4.442;2022-10-18T16:51:24;13.75;;;2.38;;
25922;SDS011;13725;51.170;4.442;2022-10-18T16:53:50;8.55;;;2.22;;
25922;SDS011;13725;51.170;4.442;2022-10-18T16:56:23;9.45;;;2.30;;
25922;SDS011;13725;51.170;4.442;2022-10-18T16:58:52;12.95;;;2.85;;
25922;SDS011;13725;51.170;4.442;2022-10-18T17:01:20;10.45;;;2.80;;
25922;SDS011;13725;51.170;4.442;2022-10-18T17:03:46;12.27;;;2.50;;
25922;SDS011;13725;51.170;4.442;2022-10-18T17:06:17;14.07;;;2.42;;
25922;SDS011;13725;51.170;4.442;2022-10-18T17:08:43;10.65;;;2.53;;
25922;SDS011;13725;51.170;4.442;2022-10-18T17:11:09;9.48;;;2.10;;
25922;SDS011;13725;51.170;4.442;2022-10-18T17:13:36;15.05;;;2.75;;
25922;SDS011;13725;51.170;4.442;2022-10-18T17:16:02;4.35;;;1.92;;
25922;SDS011;13725;51.170;4.442;2022-10-18T17:18:28;8.85;;;2.30;;
25922;SDS011;13725;51.170;4.442;2022-10-18T17:20:55;9.43;;;2.45;;
25922;SDS011;13725;51.170;4.442;2022-10-18T17:23:23;8.52;;;2.47;;
25922;SDS011;13725;51.170;4.442;2022-10-18T17:25:49;9.70;;;2.40;;
25922;SDS011;13725;51.170;4.442;2022-10-18T17:28:16;8.40;;;2.33;;
25922;SDS011;13725;51.170;4.442;2022-10-18T17:30:43;11.63;;;2.42;;
25922;SDS011;13725;51.170;4.442;2022-10-18T17:33:09;13.48;;;2.80;;
25922;SDS011;13725;51.170;4.442;2022-10-18T17:35:35;15.07;;;3.38;;
25922;SDS011;13725;51.170;4.442;2022-10-18T17:38:02;12.32;;;3.15;;
25922;SDS011;13725;51.170;4.442;2022-10-18T17:40:28;9.45;;;3.53;;